Schedule Details


Flight Number: CTN490
Departure: Franjo Tudman (LDZA) at 08:25
Arrival: Heathrow (EGLL) at 10:00
Route: PODET DCT KLAGY DCT ERKIR UL608 TEDGO UZ210 LIRSU UL608 COA L179 SASKI L608 LOGAN

Weather Information
LDZA 180000Z 00000KT CAVOK 18/16 Q1017 NOSIG
EGLL 180020Z AUTO 04006KT 360V070 6000 -RA BKN007 BKN013 OVC023 17/15 Q1014 TEMPO 4000 RADZ
Schedule Frequency

Route Map